Time;durP1;ratioP1;P1;durP2;ratioP2;P2;SDS_P1;SDS_P2;PMS_P1;PMS_P2;Temp;Humidity;BMP_temperature;BMP_pressure;BME280_temperature;BME280_humidity;BME280_pressure;Samples;Min_cycle;Max_cycle;Signal;HPM_P1;HPM_P2
2024/02/06 00:02:08;;;;;;;;;;;;;;;2.39;79.94;99213.39;108107;1253;60501;-69
2024/02/06 00:04:37;;;;;;;;;;;;;;;2.37;80.77;99209.83;108223;1254;74115;-69
2024/02/06 00:07:05;;;;;;;;;;;;;;;2.36;81.92;99217.34;109430;1253;72120;-70
2024/02/06 00:09:49;;;;;;;;;;;;;;;2.36;82.95;99208.87;108339;1254;73269;-68
2024/02/06 00:12:17;;;;;;;;;;;;;;;2.35;83.97;99213.55;108241;1252;61176;-68
2024/02/06 00:14:46;;;;;;;;;;;;;;;2.34;84.65;99220.70;108101;1252;60334;-68
2024/02/06 00:17:13;;;;;;;;;;;;;;;2.34;85.47;99218.21;108129;1254;73045;-68
2024/02/06 00:19:41;;;;;;;;;;;;;;;2.34;86.06;99220.10;108167;1254;72739;-68
2024/02/06 00:22:08;;;;;;;;;;;;;;;2.31;86.92;99223.21;108187;1255;73076;-69
2024/02/06 00:24:35;;;;;;;;;;;;;;;2.28;87.89;99219.30;108245;1253;60867;-69
2024/02/06 00:27:02;;;;;;;;;;;;;;;2.26;88.94;99218.74;108152;1254;60498;-71
2024/02/06 00:29:29;;;;;;;;;;;;;;;2.25;89.92;99216.26;108275;1253;74357;-70
2024/02/06 00:31:56;;;;;;;;;;;;;;;2.23;90.98;99215.64;108401;1251;71619;-70
2024/02/06 00:34:23;;;;;;;;;;;;;;;2.22;92.04;99215.30;108320;1253;70405;-71
2024/02/06 00:36:50;;;;;;;;;;;;;;;2.21;93.17;99210.82;108394;1253;60870;-69
2024/02/06 00:39:17;;;;;;;;;;;;;;;2.22;94.05;99211.45;108336;1253;60430;-72
2024/02/06 00:41:44;;;;;;;;;;;;;;;2.22;94.62;99211.04;108401;1253;74495;-70
2024/02/06 00:44:11;;;;;;;;;;;;;;;2.22;95.18;99213.09;108340;1254;73468;-70
2024/02/06 00:46:38;;;;;;;;;;;;;;;2.22;95.89;99215.46;108256;1254;73083;-71
2024/02/06 00:49:05;;;;;;;;;;;;;;;2.23;96.17;99222.17;108261;1254;62049;-70
2024/02/06 00:51:32;;;;;;;;;;;;;;;2.21;96.72;99220.98;108326;1254;60448;-71
2024/02/06 00:53:59;;;;;;;;;;;;;;;2.20;96.90;99217.47;108209;1254;73850;-69
2024/02/06 00:56:26;;;;;;;;;;;;;;;2.18;97.24;99213.06;108334;1254;73165;-70
2024/02/06 00:58:53;;;;;;;;;;;;;;;2.17;97.40;99213.01;108279;1252;73049;-71
2024/02/06 01:01:21;;;;;;;;;;;;;;;2.17;97.56;99204.81;108346;1253;62281;-69
2024/02/06 01:03:48;;;;;;;;;;;;;;;2.16;97.46;99202.27;108271;1254;60328;-69
2024/02/06 01:06:15;;;;;;;;;;;;;;;2.16;97.29;99204.23;108316;1256;73636;-70
2024/02/06 01:08:42;;;;;;;;;;;;;;;2.18;97.07;99207.52;108355;1253;72436;-69
2024/02/06 01:11:09;;;;;;;;;;;;;;;2.17;96.98;99209.14;108319;1253;73205;-71
2024/02/06 01:13:36;;;;;;;;;;;;;;;2.17;96.83;99204.50;108301;1253;61097;-70
2024/02/06 01:16:04;;;;;;;;;;;;;;;2.17;96.69;99201.94;108320;1256;61288;-68
2024/02/06 01:18:31;;;;;;;;;;;;;;;2.17;96.39;99206.98;108255;1254;74365;-68
2024/02/06 01:20:59;;;;;;;;;;;;;;;2.15;96.27;99204.10;108391;1254;71608;-70
2024/02/06 01:23:26;;;;;;;;;;;;;;;2.13;96.22;99200.27;108374;1253;71358;-70
2024/02/06 01:25:53;;;;;;;;;;;;;;;2.10;96.08;99208.45;108292;1254;60539;-70
2024/02/06 01:28:20;;;;;;;;;;;;;;;2.06;96.09;99214.95;108237;1252;59251;-70
2024/02/06 01:30:48;;;;;;;;;;;;;;;2.01;96.09;99212.05;108305;1254;73476;-70
2024/02/06 01:33:23;;;;;;;;;;;;;;;1.99;96.28;99220.91;108349;1252;73133;-69
2024/02/06 01:35:54;;;;;;;;;;;;;;;1.98;96.22;99225.55;108309;1254;71199;-68
2024/02/06 01:38:24;;;;;;;;;;;;;;;1.97;96.21;99226.04;108352;1252;61195;-69
2024/02/06 01:40:58;;;;;;;;;;;;;;;1.97;96.31;99223.14;108343;1253;60271;-69
2024/02/06 01:43:32;;;;;;;;;;;;;;;1.97;96.34;99220.25;108302;1254;73728;-69
2024/02/06 01:46:21;;;;;;;;;;;;;;;1.98;96.16;99220.31;108278;1254;72717;-70
2024/02/06 01:48:56;;;;;;;;;;;;;;;2.00;96.16;99218.77;108302;1256;73177;-69
2024/02/06 01:51:32;;;;;;;;;;;;;;;2.03;95.75;99223.58;108288;1252;60520;-69
2024/02/06 01:54:25;;;;;;;;;;;;;;;2.06;95.58;99224.05;108193;1253;60344;-69
2024/02/06 01:56:56;;;;;;;;;;;;;;;2.07;95.31;99222.20;108275;1253;73881;-70
2024/02/06 01:59:37;;;;;;;;;;;;;;;2.09;95.02;99226.85;108241;1253;72529;-69
2024/02/06 02:02:21;;;;;;;;;;;;;;;2.08;94.78;99229.22;108254;1254;72767;-69
2024/02/06 02:05:17;;;;;;;;;;;;;;;2.09;94.65;99225.54;108330;1252;61101;-70
2024/02/06 02:08:17;;;;;;;;;;;;;;;2.10;94.27;99220.23;108327;1252;60299;-71
2024/02/06 02:11:15;;;;;;;;;;;;;;;2.10;94.19;99220.50;108275;1253;74343;-74
2024/02/06 02:14:11;;;;;;;;;;;;;;;2.12;93.76;99225.55;108215;1254;72512;-76
2024/02/06 02:17:05;;;;;;;;;;;;;;;2.15;93.34;99229.06;108393;1257;71536;-72
2024/02/06 02:19:44;;;;;;;;;;;;;;;2.18;92.72;99230.45;108322;1251;62521;-69
2024/02/06 02:22:24;;;;;;;;;;;;;;;2.20;92.10;99226.80;108369;1251;60293;-71
2024/02/06 02:25:13;;;;;;;;;;;;;;;2.24;91.62;99223.24;108351;1254;73196;-70
2024/02/06 02:27:50;;;;;;;;;;;;;;;2.26;90.99;99229.92;108183;1251;72568;-69
2024/02/06 02:30:35;;;;;;;;;;;;;;;2.28;90.35;99238.92;108313;1254;71617;-70
2024/02/06 02:33:17;;;;;;;;;;;;;;;2.29;89.93;99240.46;108282;1252;60969;-71
2024/02/06 02:35:58;;;;;;;;;;;;;;;2.31;89.24;99248.31;108061;1254;60293;-70
2024/02/06 02:38:38;;;;;;;;;;;;;;;2.33;88.84;99253.60;108336;1253;72470;-69
2024/02/06 02:41:06;;;;;;;;;;;;;;;2.35;88.57;99250.33;108328;1251;72737;-70
2024/02/06 02:43:44;;;;;;;;;;;;;;;2.36;88.28;99248.76;108318;1251;73932;-69
2024/02/06 02:46:47;;;;;;;;;;;;;;;2.37;88.05;99250.32;108266;1252;60865;-69
2024/02/06 02:49:21;;;;;;;;;;;;;;;2.38;87.76;99243.80;108214;1253;59408;-69
2024/02/06 02:51:50;;;;;;;;;;;;;;;2.37;87.36;99245.41;108397;1251;74715;-71
2024/02/06 02:54:17;;;;;;;;;;;;;;;2.37;87.06;99242.26;108200;1254;71204;-69
2024/02/06 02:56:47;;;;;;;;;;;;;;;2.38;86.83;99243.54;108372;1253;72726;-71
2024/02/06 02:59:15;;;;;;;;;;;;;;;2.39;86.56;99245.34;108321;1253;60965;-69
2024/02/06 03:01:42;;;;;;;;;;;;;;;2.42;86.26;99241.55;108366;1253;60319;-71
2024/02/06 03:04:10;;;;;;;;;;;;;;;2.44;86.00;99242.27;108413;1251;74415;-69
2024/02/06 03:06:39;;;;;;;;;;;;;;;2.46;85.36;99238.29;108448;1254;72682;-69
2024/02/06 03:09:18;;;;;;;;;;;;;;;2.47;84.51;99244.32;108274;1253;73277;-69
2024/02/06 03:11:47;;;;;;;;;;;;;;;2.50;84.26;99235.95;108282;1253;60975;-69
2024/02/06 03:14:15;;;;;;;;;;;;;;;2.54;84.10;99236.77;108298;1252;60348;-68
2024/02/06 03:16:44;;;;;;;;;;;;;;;2.54;83.64;99230.33;108301;1256;73781;-69
2024/02/06 03:19:13;;;;;;;;;;;;;;;2.54;83.20;99232.75;108319;1254;72895;-68
2024/02/06 03:21:44;;;;;;;;;;;;;;;2.55;83.08;99234.14;108357;1254;72795;-70
2024/02/06 03:24:12;;;;;;;;;;;;;;;2.56;82.78;99231.15;108324;1252;61222;-70
2024/02/06 03:26:41;;;;;;;;;;;;;;;2.56;82.68;99236.57;108312;1253;61123;-70
2024/02/06 03:29:08;;;;;;;;;;;;;;;2.55;82.51;99234.52;108270;1254;74473;-70
2024/02/06 03:31:44;;;;;;;;;;;;;;;2.54;82.29;99233.70;108347;1253;72631;-71
2024/02/06 03:35:19;;;;;;;;;;;;;;;2.55;82.06;99233.34;108326;1254;71239;-70
2024/02/06 03:37:46;;;;;;;;;;;;;;;2.56;81.94;99234.09;108284;1252;61339;-74
2024/02/06 03:40:13;;;;;;;;;;;;;;;2.55;81.84;99232.73;108325;1253;61091;-71
2024/02/06 03:42:40;;;;;;;;;;;;;;;2.56;81.74;99231.98;108307;1254;74658;-70
2024/02/06 03:45:08;;;;;;;;;;;;;;;2.55;81.71;99231.14;108307;1251;73313;-71
2024/02/06 03:47:35;;;;;;;;;;;;;;;2.55;81.58;99231.45;108400;1251;72535;-70
2024/02/06 03:50:03;;;;;;;;;;;;;;;2.54;81.52;99237.17;108292;1253;61135;-71
2024/02/06 03:52:30;;;;;;;;;;;;;;;2.54;81.55;99238.45;108368;1255;61119;-69
2024/02/06 03:54:57;;;;;;;;;;;;;;;2.54;81.47;99238.40;108359;1253;74613;-69
2024/02/06 03:57:24;;;;;;;;;;;;;;;2.55;81.42;99237.61;108335;1253;72127;-70
2024/02/06 03:59:51;;;;;;;;;;;;;;;2.54;81.43;99233.98;108262;1253;72371;-70
2024/02/06 04:02:21;;;;;;;;;;;;;;;2.54;81.57;99233.86;108319;1251;61116;-70
2024/02/06 04:04:48;;;;;;;;;;;;;;;2.53;81.50;99233.48;108312;1251;63098;-70
2024/02/06 04:07:15;;;;;;;;;;;;;;;2.53;81.50;99236.32;108302;1251;74395;-70
2024/02/06 04:09:43;;;;;;;;;;;;;;;2.50;81.41;99239.89;108237;1254;70974;-70
2024/02/06 04:12:10;;;;;;;;;;;;;;;2.48;81.33;99239.38;108319;1251;72227;-70
2024/02/06 04:14:39;;;;;;;;;;;;;;;2.47;81.22;99245.70;108303;1251;62480;-70
2024/02/06 04:17:05;;;;;;;;;;;;;;;2.44;81.08;99248.76;108396;1251;61084;-70
2024/02/06 04:19:32;;;;;;;;;;;;;;;2.43;81.09;99241.23;108219;1251;74898;-70
2024/02/06 04:21:59;;;;;;;;;;;;;;;2.43;81.09;99235.76;108313;1251;72856;-70
2024/02/06 04:24:26;;;;;;;;;;;;;;;2.44;81.06;99237.48;108349;1252;71082;-70
2024/02/06 04:26:53;;;;;;;;;;;;;;;2.44;80.89;99239.11;108332;1251;61228;-69
2024/02/06 04:29:21;;;;;;;;;;;;;;;2.44;80.72;99235.75;108132;1253;61141;-69
2024/02/06 04:31:48;;;;;;;;;;;;;;;2.42;80.56;99236.06;108351;1251;73258;-70
2024/02/06 04:34:15;;;;;;;;;;;;;;;2.43;80.46;99234.02;108398;1253;71223;-69
2024/02/06 04:36:42;;;;;;;;;;;;;;;2.44;80.32;99234.21;108533;1254;72491;-70
2024/02/06 04:39:10;;;;;;;;;;;;;;;2.45;80.14;99227.90;108350;1251;61151;-69
2024/02/06 04:41:39;;;;;;;;;;;;;;;2.45;79.86;99228.33;108330;1252;59862;-70
2024/02/06 04:44:07;;;;;;;;;;;;;;;2.45;79.63;99228.85;108412;1253;74495;-69
2024/02/06 04:46:34;;;;;;;;;;;;;;;2.46;79.50;99235.08;108350;1251;72807;-69
2024/02/06 04:49:01;;;;;;;;;;;;;;;2.46;79.09;99239.66;108384;1251;71017;-70
2024/02/06 04:51:29;;;;;;;;;;;;;;;2.47;78.94;99240.05;108380;1251;61151;-70
2024/02/06 04:53:56;;;;;;;;;;;;;;;2.48;78.75;99249.15;108410;1251;61129;-70
2024/02/06 04:56:23;;;;;;;;;;;;;;;2.48;78.70;99251.05;108376;1253;75393;-69
2024/02/06 04:58:50;;;;;;;;;;;;;;;2.48;78.56;99254.05;108397;1256;71366;-70
2024/02/06 05:01:18;;;;;;;;;;;;;;;2.47;78.41;99255.61;108350;1255;72725;-69
2024/02/06 05:03:45;;;;;;;;;;;;;;;2.48;78.39;99256.16;108326;1251;61151;-74
2024/02/06 05:06:12;;;;;;;;;;;;;;;2.50;78.37;99258.98;108389;1252;61221;-70
2024/02/06 05:08:40;;;;;;;;;;;;;;;2.51;78.51;99260.91;108374;1254;73227;-69
2024/02/06 05:11:07;;;;;;;;;;;;;;;2.48;78.58;99252.52;108369;1251;73326;-70
2024/02/06 05:13:34;;;;;;;;;;;;;;;2.51;78.75;99258.30;108355;1254;73593;-69
2024/02/06 05:16:01;;;;;;;;;;;;;;;2.53;78.58;99261.09;108341;1253;61122;-70
2024/02/06 05:18:29;;;;;;;;;;;;;;;2.54;78.73;99260.06;108397;1253;61108;-71
2024/02/06 05:20:58;;;;;;;;;;;;;;;2.54;79.03;99255.42;108389;1253;74433;-70
2024/02/06 05:23:25;;;;;;;;;;;;;;;2.55;79.35;99260.19;108363;1254;72961;-69
2024/02/06 05:25:52;;;;;;;;;;;;;;;2.58;79.57;99266.73;108363;1254;73227;-70
2024/02/06 05:28:20;;;;;;;;;;;;;;;2.59;79.93;99268.32;108363;1253;61220;-69
2024/02/06 05:30:47;;;;;;;;;;;;;;;2.62;80.32;99265.09;108385;1253;60234;-69
2024/02/06 05:33:15;;;;;;;;;;;;;;;2.62;80.64;99267.21;108373;1254;75033;-70
2024/02/06 05:35:41;;;;;;;;;;;;;;;2.63;81.13;99259.30;108329;1253;71760;-70
2024/02/06 05:38:08;;;;;;;;;;;;;;;2.64;81.65;99260.13;108349;1253;73203;-71
2024/02/06 05:40:35;;;;;;;;;;;;;;;2.65;82.10;99261.05;108378;1253;60894;-70
2024/02/06 05:43:02;;;;;;;;;;;;;;;2.66;82.61;99261.63;108320;1254;61077;-69
2024/02/06 05:45:30;;;;;;;;;;;;;;;2.66;83.10;99255.66;108364;1254;74236;-69
2024/02/06 05:47:59;;;;;;;;;;;;;;;2.68;83.74;99249.33;108357;1255;72672;-70
2024/02/06 05:50:29;;;;;;;;;;;;;;;2.70;84.14;99259.86;108377;1254;72620;-70
2024/02/06 05:52:57;;;;;;;;;;;;;;;2.72;84.76;99251.20;108326;1251;61314;-69
2024/02/06 05:55:25;;;;;;;;;;;;;;;2.73;85.31;99258.82;108394;1254;61119;-70
2024/02/06 05:57:52;;;;;;;;;;;;;;;2.75;85.75;99262.48;108353;1254;75022;-70
2024/02/06 06:00:20;;;;;;;;;;;;;;;2.76;86.43;99265.41;108359;1253;71459;-71
2024/02/06 06:02:47;;;;;;;;;;;;;;;2.77;87.28;99260.90;108383;1253;71699;-70
2024/02/06 06:05:14;;;;;;;;;;;;;;;2.78;87.83;99257.31;108349;1252;61090;-72
2024/02/06 06:07:42;;;;;;;;;;;;;;;2.78;88.84;99255.06;108385;1252;61138;-69
2024/02/06 06:10:09;;;;;;;;;;;;;;;2.79;89.71;99260.23;108397;1253;74499;-70
2024/02/06 06:12:36;;;;;;;;;;;;;;;2.78;90.66;99255.42;108351;1254;72811;-70
2024/02/06 06:15:04;;;;;;;;;;;;;;;2.78;91.63;99260.00;108397;1253;71371;-69
2024/02/06 06:17:31;;;;;;;;;;;;;;;2.78;92.73;99250.67;108357;1252;60935;-70
2024/02/06 06:19:59;;;;;;;;;;;;;;;2.79;93.81;99262.09;108401;1253;61263;-71
2024/02/06 06:22:26;;;;;;;;;;;;;;;2.78;95.11;99254.89;108368;1254;73315;-70
2024/02/06 06:24:53;;;;;;;;;;;;;;;2.78;96.70;99250.41;108399;1252;72726;-70
2024/02/06 06:27:20;;;;;;;;;;;;;;;2.75;98.63;99259.05;108305;1252;71917;-71
2024/02/06 06:29:47;;;;;;;;;;;;;;;2.74;99.97;99262.38;108342;1253;61087;-72
2024/02/06 06:32:14;;;;;;;;;;;;;;;2.74;100.00;99265.17;108335;1252;61122;-71
2024/02/06 06:34:41;;;;;;;;;;;;;;;2.75;100.00;99273.18;108389;1253;74784;-69
2024/02/06 06:37:09;;;;;;;;;;;;;;;2.75;100.00;99274.77;108325;1252;72713;-70
2024/02/06 06:39:35;;;;;;;;;;;;;;;2.76;100.00;99274.95;108329;1254;73233;-69
2024/02/06 06:42:04;;;;;;;;;;;;;;;2.76;100.00;99281.80;108388;1254;61084;-71
2024/02/06 06:44:31;;;;;;;;;;;;;;;2.74;100.00;99282.77;108385;1253;61081;-70
2024/02/06 06:46:58;;;;;;;;;;;;;;;2.74;100.00;99284.04;108339;1253;75111;-71
2024/02/06 06:49:25;;;;;;;;;;;;;;;2.74;100.00;99283.39;108307;1253;73394;-69
2024/02/06 06:51:53;;;;;;;;;;;;;;;2.76;100.00;99278.64;108276;1253;71295;-69
2024/02/06 06:54:19;;;;;;;;;;;;;;;2.79;100.00;99281.38;108326;1252;61203;-68
2024/02/06 06:56:46;;;;;;;;;;;;;;;2.80;100.00;99283.21;108205;1253;61055;-69
2024/02/06 06:59:13;;;;;;;;;;;;;;;2.84;100.00;99285.01;108208;1254;75195;-69
2024/02/06 07:01:41;;;;;;;;;;;;;;;2.84;100.00;99284.84;108293;1251;72562;-70
2024/02/06 07:04:09;;;;;;;;;;;;;;;2.85;100.00;99286.28;108303;1251;71475;-68
2024/02/06 07:06:36;;;;;;;;;;;;;;;2.85;100.00;99289.87;108317;1251;61232;-70
2024/02/06 07:09:06;;;;;;;;;;;;;;;2.84;100.00;99290.91;108192;1251;61083;-71
2024/02/06 07:11:33;;;;;;;;;;;;;;;2.82;100.00;99288.19;108209;1253;73269;-70
2024/02/06 07:14:00;;;;;;;;;;;;;;;2.83;100.00;99282.46;108244;1251;73066;-72
2024/02/06 07:16:27;;;;;;;;;;;;;;;2.83;100.00;99279.29;108192;1253;73300;-71
2024/02/06 07:18:53;;;;;;;;;;;;;;;2.84;100.00;99286.12;108178;1254;61218;-73
2024/02/06 07:21:20;;;;;;;;;;;;;;;2.87;100.00;99287.44;108337;1254;61319;-70
2024/02/06 07:23:47;;;;;;;;;;;;;;;2.90;100.00;99291.34;108206;1253;74468;-69
2024/02/06 07:26:14;;;;;;;;;;;;;;;2.92;100.00;99295.27;108274;1251;72748;-69
2024/02/06 07:28:41;;;;;;;;;;;;;;;2.91;100.00;99300.16;108267;1252;71643;-69
2024/02/06 07:31:08;;;;;;;;;;;;;;;2.90;100.00;99299.83;108230;1251;61265;-70
2024/02/06 07:33:35;;;;;;;;;;;;;;;2.88;100.00;99302.69;108280;1252;61186;-69
2024/02/06 07:36:02;;;;;;;;;;;;;;;2.87;100.00;99297.09;108361;1255;74769;-70
2024/02/06 07:38:30;;;;;;;;;;;;;;;2.89;100.00;99291.58;108350;1254;71195;-70
2024/02/06 07:40:58;;;;;;;;;;;;;;;2.92;100.00;99300.77;108303;1253;72741;-70
2024/02/06 07:43:32;;;;;;;;;;;;;;;2.95;100.00;99306.29;108261;1253;61199;-69
2024/02/06 07:46:00;;;;;;;;;;;;;;;2.94;100.00;99307.76;108307;1253;61016;-70
2024/02/06 07:48:27;;;;;;;;;;;;;;;2.95;100.00;99307.14;108262;1253;74524;-69
2024/02/06 07:50:53;;;;;;;;;;;;;;;2.96;100.00;99301.83;108222;1254;71965;-70
2024/02/06 07:53:20;;;;;;;;;;;;;;;3.02;100.00;99296.82;108287;1254;71165;-70
2024/02/06 07:55:47;;;;;;;;;;;;;;;3.10;100.00;99291.45;108283;1252;61540;-71
2024/02/06 07:58:14;;;;;;;;;;;;;;;3.19;100.00;99285.05;108194;1253;61186;-71
2024/02/06 08:00:41;;;;;;;;;;;;;;;3.26;100.00;99286.77;108212;1254;75313;-70
2024/02/06 08:03:08;;;;;;;;;;;;;;;3.37;100.00;99286.35;108269;1254;71746;-71
2024/02/06 08:05:35;;;;;;;;;;;;;;;3.48;100.00;99287.89;108272;1255;71525;-70
2024/02/06 08:08:04;;;;;;;;;;;;;;;3.62;100.00;99289.82;108276;1256;61325;-71
2024/02/06 08:10:31;;;;;;;;;;;;;;;3.72;100.00;99288.76;108282;1253;61189;-69
2024/02/06 08:12:58;;;;;;;;;;;;;;;3.76;100.00;99289.35;108296;1253;74691;-70
2024/02/06 08:15:25;;;;;;;;;;;;;;;3.78;100.00;99293.81;108348;1251;71521;-70
2024/02/06 08:17:52;;;;;;;;;;;;;;;3.79;100.00;99298.27;108217;1255;73297;-70
2024/02/06 08:20:19;;;;;;;;;;;;;;;3.79;100.00;99297.45;108255;1253;61278;-69
2024/02/06 08:22:49;;;;;;;;;;;;;;;3.76;100.00;99292.36;108281;1251;61233;-70
2024/02/06 08:25:17;;;;;;;;;;;;;;;3.78;100.00;99294.58;108320;1253;74438;-71
2024/02/06 08:27:45;;;;;;;;;;;;;;;3.80;100.00;99296.64;108221;1255;71630;-70
2024/02/06 08:30:12;;;;;;;;;;;;;;;3.83;100.00;99299.48;108321;1251;71069;-70
2024/02/06 08:32:39;;;;;;;;;;;;;;;3.85;100.00;99296.55;108253;1251;61207;-70
2024/02/06 08:35:06;;;;;;;;;;;;;;;3.92;100.00;99296.73;108315;1253;61250;-70
2024/02/06 08:37:33;;;;;;;;;;;;;;;3.96;100.00;99294.33;108289;1251;74832;-70
2024/02/06 08:40:01;;;;;;;;;;;;;;;3.98;100.00;99292.17;108335;1251;72583;-70
2024/02/06 08:42:28;;;;;;;;;;;;;;;3.99;100.00;99300.75;108260;1252;72021;-70
2024/02/06 08:44:55;;;;;;;;;;;;;;;3.99;100.00;99299.48;108267;1254;61197;-69
2024/02/06 08:47:22;;;;;;;;;;;;;;;3.98;100.00;99297.46;108249;1254;61123;-70
2024/02/06 08:49:48;;;;;;;;;;;;;;;4.01;100.00;99298.40;108270;1254;74489;-70
2024/02/06 08:52:15;;;;;;;;;;;;;;;4.06;100.00;99292.55;108333;1254;71331;-70
2024/02/06 08:54:42;;;;;;;;;;;;;;;4.09;100.00;99295.77;108253;1251;71476;-70
2024/02/06 08:57:09;;;;;;;;;;;;;;;4.08;100.00;99291.14;108297;1252;61189;-70
2024/02/06 08:59:36;;;;;;;;;;;;;;;4.08;100.00;99288.18;108335;1251;61076;-71
2024/02/06 09:02:04;;;;;;;;;;;;;;;4.08;100.00;99287.85;108283;1252;74548;-70
2024/02/06 09:04:31;;;;;;;;;;;;;;;4.15;100.00;99299.00;108338;1254;72773;-69
2024/02/06 09:07:00;;;;;;;;;;;;;;;4.20;100.00;99295.31;108251;1251;71458;-70
2024/02/06 09:09:28;;;;;;;;;;;;;;;4.25;100.00;99297.70;108300;1252;61272;-70
2024/02/06 09:11:55;;;;;;;;;;;;;;;4.29;100.00;99295.25;108304;1253;61122;-70
2024/02/06 09:14:22;;;;;;;;;;;;;;;4.35;100.00;99292.11;108246;1253;73248;-70
2024/02/06 09:16:50;;;;;;;;;;;;;;;4.44;100.00;99288.66;108284;1253;72820;-71
2024/02/06 09:19:17;;;;;;;;;;;;;;;4.51;100.00;99286.35;108267;1251;71503;-70
2024/02/06 09:21:45;;;;;;;;;;;;;;;4.53;100.00;99286.27;108264;1253;61222;-71
2024/02/06 09:24:12;;;;;;;;;;;;;;;4.57;100.00;99281.98;108282;1253;61417;-71
2024/02/06 09:26:39;;;;;;;;;;;;;;;4.70;100.00;99283.06;108260;1252;75851;-69
2024/02/06 09:29:06;;;;;;;;;;;;;;;4.72;100.00;99280.06;108293;1251;73812;-70
2024/02/06 09:31:33;;;;;;;;;;;;;;;4.75;100.00;99276.33;108300;1252;73810;-70
2024/02/06 09:34:00;;;;;;;;;;;;;;;4.84;100.00;99275.48;108250;1253;61410;-70
2024/02/06 09:36:27;;;;;;;;;;;;;;;4.93;100.00;99269.73;108383;1253;61221;-70
2024/02/06 09:38:54;;;;;;;;;;;;;;;4.99;100.00;99269.84;108319;1251;74781;-70
2024/02/06 09:41:21;;;;;;;;;;;;;;;5.01;100.00;99267.52;108272;1254;73034;-70
2024/02/06 09:43:49;;;;;;;;;;;;;;;5.13;100.00;99270.55;108337;1253;72572;-70
2024/02/06 09:46:18;;;;;;;;;;;;;;;5.18;100.00;99267.63;108349;1254;61092;-69
2024/02/06 09:48:45;;;;;;;;;;;;;;;5.21;100.00;99269.91;108282;1253;61122;-69
2024/02/06 09:51:12;;;;;;;;;;;;;;;5.17;100.00;99263.27;108366;1253;76139;-69
2024/02/06 09:53:39;;;;;;;;;;;;;;;5.08;100.00;99256.80;107960;1254;446487;-70
2024/02/06 09:56:06;;;;;;;;;;;;;;;4.98;100.00;99253.80;108294;1252;72607;-70
2024/02/06 09:58:33;;;;;;;;;;;;;;;4.91;100.00;99256.39;108348;1253;61119;-69
2024/02/06 10:01:01;;;;;;;;;;;;;;;4.88;100.00;99254.09;108278;1254;61221;-71
2024/02/06 10:03:32;;;;;;;;;;;;;;;4.81;100.00;99250.58;108225;1254;72851;-70
2024/02/06 10:05:59;;;;;;;;;;;;;;;4.78;100.00;99250.14;108342;1254;72067;-70
2024/02/06 10:08:26;;;;;;;;;;;;;;;4.78;100.00;99246.80;108219;1254;72702;-70
2024/02/06 10:10:54;;;;;;;;;;;;;;;4.84;100.00;99249.29;108349;1253;61096;-70
2024/02/06 10:13:21;;;;;;;;;;;;;;;4.80;100.00;99246.61;108328;1254;61110;-70
2024/02/06 10:15:49;;;;;;;;;;;;;;;4.73;100.00;99242.73;108328;1255;74736;-70
2024/02/06 10:18:16;;;;;;;;;;;;;;;4.73;100.00;99239.23;108474;1254;72247;-71
2024/02/06 10:20:43;;;;;;;;;;;;;;;4.79;100.00;99243.46;108322;1254;70967;-70
2024/02/06 10:23:19;;;;;;;;;;;;;;;4.75;100.00;99239.54;108353;1253;61217;-71
2024/02/06 10:25:47;;;;;;;;;;;;;;;4.76;100.00;99242.13;108353;1253;61051;-70
2024/02/06 10:28:20;;;;;;;;;;;;;;;4.78;100.00;99243.47;108385;1252;74609;-70
2024/02/06 10:30:48;;;;;;;;;;;;;;;4.81;100.00;99241.38;108341;1254;72703;-70
2024/02/06 10:33:15;;;;;;;;;;;;;;;4.83;100.00;99237.02;108334;1254;71241;-70
2024/02/06 10:35:42;;;;;;;;;;;;;;;4.81;100.00;99239.69;108271;1254;62476;-70
2024/02/06 10:38:11;;;;;;;;;;;;;;;4.80;100.00;99234.54;108325;1251;61228;-70
2024/02/06 10:40:45;;;;;;;;;;;;;;;4.80;100.00;99237.18;108259;1254;74855;-71
2024/02/06 10:43:13;;;;;;;;;;;;;;;4.81;100.00;99241.12;108280;1251;73685;-70
2024/02/06 10:46:01;;;;;;;;;;;;;;;4.85;100.00;99234.47;108217;1251;71417;-71
2024/02/06 10:48:28;;;;;;;;;;;;;;;4.93;100.00;99229.05;108306;1252;62426;-74
2024/02/06 10:50:59;;;;;;;;;;;;;;;5.00;100.00;99230.85;108250;1251;61129;-71
2024/02/06 10:53:28;;;;;;;;;;;;;;;4.96;100.00;99232.14;108325;1252;74494;-71
2024/02/06 10:56:00;;;;;;;;;;;;;;;4.88;100.00;99236.20;108318;1254;72664;-71
2024/02/06 10:58:33;;;;;;;;;;;;;;;4.85;100.00;99232.04;108263;1251;72581;-71
2024/02/06 11:01:00;;;;;;;;;;;;;;;4.82;100.00;99226.56;108298;1253;61240;-71
2024/02/06 11:03:27;;;;;;;;;;;;;;;4.78;100.00;99225.10;108323;1254;61035;-71
2024/02/06 11:05:55;;;;;;;;;;;;;;;4.74;100.00;99225.91;108214;1254;74485;-71
2024/02/06 11:08:22;;;;;;;;;;;;;;;4.74;100.00;99228.06;108257;1258;71813;-71
2024/02/06 11:10:51;;;;;;;;;;;;;;;4.73;100.00;99230.08;108332;1253;71478;-70
2024/02/06 11:13:20;;;;;;;;;;;;;;;4.77;100.00;99229.60;108331;1254;61115;-70
2024/02/06 11:15:47;;;;;;;;;;;;;;;4.79;100.00;99225.42;108319;1251;61179;-71
2024/02/06 11:18:14;;;;;;;;;;;;;;;4.80;100.00;99219.23;108409;1255;74593;-70
2024/02/06 11:20:41;;;;;;;;;;;;;;;4.80;100.00;99218.73;108261;1251;72221;-70
2024/02/06 11:23:08;;;;;;;;;;;;;;;4.75;100.00;99217.95;108290;1256;72806;-70
2024/02/06 11:25:35;;;;;;;;;;;;;;;4.71;100.00;99227.02;108320;1254;61394;-70
2024/02/06 11:28:03;;;;;;;;;;;;;;;4.67;100.00;99230.71;108320;1251;61091;-70
2024/02/06 11:30:32;;;;;;;;;;;;;;;4.62;100.00;99229.14;108265;1253;74713;-70
2024/02/06 11:33:01;;;;;;;;;;;;;;;4.65;100.00;99228.01;108255;1254;72567;-70
2024/02/06 11:35:28;;;;;;;;;;;;;;;4.73;100.00;99224.95;108426;1252;73947;-71
2024/02/06 11:37:56;;;;;;;;;;;;;;;4.80;100.00;99221.69;108333;1252;60970;-71
2024/02/06 11:40:28;;;;;;;;;;;;;;;4.87;100.00;99221.01;108299;1253;61110;-70
2024/02/06 11:42:59;;;;;;;;;;;;;;;4.94;100.00;99224.18;108286;1253;73528;-71
2024/02/06 11:45:26;;;;;;;;;;;;;;;4.95;100.00;99219.05;108273;1255;71499;-70
2024/02/06 11:47:55;;;;;;;;;;;;;;;4.99;100.00;99215.96;108252;1251;72584;-71
2024/02/06 11:50:25;;;;;;;;;;;;;;;5.05;100.00;99212.41;108301;1252;61207;-70
2024/02/06 11:53:04;;;;;;;;;;;;;;;5.10;100.00;99205.04;108374;1255;61131;-71
2024/02/06 11:55:32;;;;;;;;;;;;;;;5.17;100.00;99200.33;108217;1254;75395;-70
2024/02/06 11:58:04;;;;;;;;;;;;;;;5.30;100.00;99203.21;108300;1254;72536;-71
2024/02/06 12:00:30;;;;;;;;;;;;;;;5.39;100.00;99201.84;108249;1254;72512;-71
2024/02/06 12:02:58;;;;;;;;;;;;;;;5.51;100.00;99201.17;108256;1251;61051;-71
2024/02/06 12:05:26;;;;;;;;;;;;;;;5.55;100.00;99193.52;108257;1254;61295;-70
2024/02/06 12:07:53;;;;;;;;;;;;;;;5.63;100.00;99194.34;108354;1254;74656;-71
2024/02/06 12:10:25;;;;;;;;;;;;;;;5.74;100.00;99192.28;108258;1255;71460;-70
2024/02/06 12:12:52;;;;;;;;;;;;;;;5.81;100.00;99196.40;108323;1253;73851;-71
2024/02/06 12:15:19;;;;;;;;;;;;;;;5.84;100.00;99190.27;108317;1252;61234;-72
2024/02/06 12:17:46;;;;;;;;;;;;;;;5.87;100.00;99181.05;108358;1251;61316;-72
2024/02/06 12:20:16;;;;;;;;;;;;;;;5.88;100.00;99186.18;108293;1252;74469;-71
2024/02/06 12:22:57;;;;;;;;;;;;;;;5.83;100.00;99180.28;108307;1254;72621;-72
2024/02/06 12:25:25;;;;;;;;;;;;;;;5.73;100.00;99178.86;108238;1254;72634;-72
2024/02/06 12:28:01;;;;;;;;;;;;;;;5.66;100.00;99177.24;108304;1254;62443;-71
2024/02/06 12:30:30;;;;;;;;;;;;;;;5.61;100.00;99178.81;108197;1253;61160;-70
2024/02/06 12:32:57;;;;;;;;;;;;;;;5.55;100.00;99177.79;108277;1254;75863;-70
2024/02/06 12:35:24;;;;;;;;;;;;;;;5.49;100.00;99181.92;108320;1252;72826;-71
2024/02/06 12:37:55;;;;;;;;;;;;;;;5.46;100.00;99183.77;108298;1253;73714;-71
2024/02/06 12:40:22;;;;;;;;;;;;;;;5.44;100.00;99183.61;108323;1254;60062;-71
2024/02/06 12:42:49;;;;;;;;;;;;;;;5.44;100.00;99183.87;108412;1251;61276;-71
2024/02/06 12:45:16;;;;;;;;;;;;;;;5.45;100.00;99178.36;108308;1254;72658;-74
2024/02/06 12:47:44;;;;;;;;;;;;;;;5.43;100.00;99176.92;108257;1252;71573;-71
2024/02/06 12:50:11;;;;;;;;;;;;;;;5.40;100.00;99179.20;108192;1253;71566;-71
2024/02/06 12:52:39;;;;;;;;;;;;;;;5.40;100.00;99175.58;108240;1253;61176;-71